TimeEST,TemperatureF,Dew PointF,Humidity,Sea Level PressureIn,VisibilityMPH,Wind Direction,Wind SpeedMPH,Gust SpeedMPH,PrecipitationIn,Events,Conditions,WindDirDegrees,DateUTC
12:53 AM,3.0,-17.0,39,30.14,10.0,West,16.1,23.0,N/A,,Clear,280,2014-01-07 05:53:00
1:53 AM,3.0,-16.1,41,30.17,10.0,WNW,8.1,-,N/A,,Scattered Clouds,290,2014-01-07 06:53:00
2:53 AM,3.0,-15.0,43,30.20,10.0,WNW,10.4,-,N/A,,Overcast,290,2014-01-07 07:53:00
3:53 AM,1.9,-16.1,43,30.22,10.0,WNW,23.0,31.1,N/A,,Overcast,300,2014-01-07 08:53:00
4:53 AM,1.9,-16.1,43,30.25,10.0,WNW,15.0,24.2,N/A,,Overcast,300,2014-01-07 09:53:00
5:53 AM,1.9,-15.0,45,30.28,10.0,WNW,8.1,-,N/A,,Overcast,290,2014-01-07 10:53:00
6:53 AM,1.9,-14.1,47,30.31,10.0,West,11.5,23.0,N/A,,Overcast,280,2014-01-07 11:53:00
7:53 AM,1.0,-14.1,49,30.34,10.0,WSW,11.5,-,N/A,,Overcast,250,2014-01-07 12:53:00
8:53 AM,1.9,-15.0,45,30.38,10.0,West,15.0,-,N/A,,Partly Cloudy,260,2014-01-07 13:53:00
9:53 AM,3.9,-15.0,41,30.38,10.0,West,12.7,21.9,N/A,,Scattered Clouds,280,2014-01-07 14:53:00
10:53 AM,6.1,-13.0,41,30.40,10.0,West,13.8,23.0,N/A,,Partly Cloudy,270,2014-01-07 15:53:00
11:53 AM,8.1,-11.9,40,30.36,10.0,West,19.6,26.5,N/A,,Clear,260,2014-01-07 16:53:00
12:53 PM,10.9,-9.9,39,30.36,10.0,WSW,17.3,25.3,N/A,,Clear,240,2014-01-07 17:53:00
1:53 PM,12.0,-9.9,37,30.33,10.0,WNW,20.7,28.8,N/A,,Clear,290,2014-01-07 18:53:00
2:53 PM,12.9,-9.0,37,30.34,10.0,WSW,21.9,27.6,N/A,,Clear,250,2014-01-07 19:53:00
3:53 PM,12.9,-11.9,32,30.35,10.0,West,16.1,-,N/A,,Clear,280,2014-01-07 20:53:00
4:53 PM,12.0,-11.0,35,30.36,10.0,West,12.7,-,N/A,,Clear,280,2014-01-07 21:53:00
5:53 PM,10.9,-9.9,39,30.38,10.0,WNW,12.7,25.3,N/A,,Clear,290,2014-01-07 22:53:00
6:53 PM,10.0,-9.0,42,30.41,10.0,WSW,5.8,-,N/A,,Clear,250,2014-01-07 23:53:00
7:53 PM,10.9,-9.9,39,30.42,10.0,West,12.7,19.6,N/A,,Clear,280,2014-01-08 00:53:00
8:53 PM,10.9,-9.9,39,30.43,10.0,West,11.5,-,N/A,,Clear,280,2014-01-08 01:53:00
9:53 PM,12.0,-9.9,37,30.45,10.0,West,12.7,-,N/A,,Clear,270,2014-01-08 02:53:00
10:53 PM,12.0,-8.0,41,30.46,10.0,West,11.5,-,N/A,,Clear,270,2014-01-08 03:53:00
11:53 PM,12.0,-9.0,39,30.46,10.0,West,10.4,-,N/A,,Clear,280,2014-01-08 04:53:00